Star, Texas
Current Conditions -  °F | °C
As of 4:15 PM on Sunday 23 Nov 2014 (Local Time) from KMNZ Reporting Station
Clear Clear  
Wind Chill: 74°   Ceiling: Unl
Heat Index: 74°   Visibility: 10mi
Dew Point: 37°   Wind: 15mph
Humidity: 26%   Direction: 270°W
Pressure: 29.53"   Gusts: 23mph
Location:  31.47°N, 98.32°W
Report Text: KMNZ 232215Z AUTO 27013G20KT 10SM CLR 24/03 A2953 RMK AO2 T02360030
Loading
Personal Weather Stations






























Interactive Weather Map New forecast layout! Learn more

10-Day Weather Forecast

Advertisements
Track Severe Weather on mobile